Time;durP1;ratioP1;P1;durP2;ratioP2;P2;SDS_P1;SDS_P2;PMS_P1;PMS_P2;Temp;Humidity;BMP_temperature;BMP_pressure;BME280_temperature;BME280_humidity;BME280_pressure;Samples;Min_cycle;Max_cycle;Signal;HPM_P1;HPM_P2
2022/09/16 00:02:22;;;;;;;17.02;4.90;;;21.00;99.90;;;;;;5050323;28;20048;-51
2022/09/16 00:05:26;;;;;;;16.88;5.13;;;21.00;99.90;;;;;;5050619;28;20056;-51
2022/09/16 00:08:30;;;;;;;14.45;3.40;;;21.00;99.90;;;;;;5050344;28;20071;-50
2022/09/16 00:14:57;;;;;;;15.02;3.92;;;21.00;99.90;;;;;;5050416;28;20057;-51
2022/09/16 00:18:01;;;;;;;14.90;4.03;;;21.10;99.90;;;;;;5050466;28;20048;-50
2022/09/16 00:21:25;;;;;;;15.27;3.70;;;21.10;99.90;;;;;;5051033;28;20107;-50
2022/09/16 00:24:29;;;;;;;19.48;3.72;;;21.00;99.90;;;;;;5050072;28;20048;-50
2022/09/16 00:27:33;;;;;;;14.50;3.75;;;21.00;99.90;;;;;;5050386;28;20044;-50
2022/09/16 00:33:59;;;;;;;16.02;3.80;;;21.00;99.90;;;;;;5049664;28;20419;-51
2022/09/16 00:37:07;;;;;;;15.82;3.88;;;20.90;99.90;;;;;;5049056;28;20055;-52
2022/09/16 00:40:11;;;;;;;14.98;3.50;;;20.90;99.90;;;;;;5049418;28;20040;-51
2022/09/16 00:43:17;;;;;;;18.45;4.65;;;20.80;99.90;;;;;;5049607;28;20407;-50
2022/09/16 00:46:38;;;;;;;17.85;4.65;;;20.80;99.90;;;;;;5049665;28;20042;-51
2022/09/16 00:49:44;;;;;;;15.93;4.55;;;20.80;99.90;;;;;;5049908;28;20203;-50
2022/09/16 00:52:51;;;;;;;17.98;4.63;;;20.80;99.90;;;;;;5049575;28;20519;-50
2022/09/16 00:56:15;;;;;;;14.50;4.15;;;20.80;99.90;;;;;;5049915;28;20317;-51
2022/09/16 00:59:47;;;;;;;21.63;3.78;;;20.70;99.90;;;;;;5049318;28;20036;-51
2022/09/16 01:03:10;;;;;;;15.88;3.70;;;20.70;99.90;;;;;;5049820;28;20051;-54
2022/09/16 01:06:15;;;;;;;17.73;4.28;;;20.70;99.90;;;;;;5049959;28;20537;-53
2022/09/16 01:09:22;;;;;;;11.77;3.80;;;20.70;99.90;;;;;;5049496;28;20044;-50
2022/09/16 01:12:30;;;;;;;16.05;3.83;;;20.70;99.90;;;;;;5049813;28;20063;-50
2022/09/16 01:16:11;;;;;;;17.42;4.82;;;20.70;99.90;;;;;;5049594;28;20051;-50
2022/09/16 01:19:50;;;;;;;20.27;4.03;;;20.70;99.90;;;;;;5049381;28;20531;-50
2022/09/16 01:23:18;;;;;;;16.30;3.97;;;20.70;99.90;;;;;;5049352;28;20040;-51
2022/09/16 01:34:16;;;;;;;23.90;4.60;;;20.70;99.90;;;;;;5049508;28;20059;-51
2022/09/16 01:37:41;;;;;;;13.38;3.95;;;20.70;99.90;;;;;;5049095;28;20510;-50
2022/09/16 01:41:00;;;;;;;13.18;4.13;;;20.80;99.90;;;;;;5049128;28;20045;-51
2022/09/16 01:44:25;;;;;;;17.38;3.40;;;20.80;99.90;;;;;;5048965;28;20404;-50
2022/09/16 01:47:40;;;;;;;17.63;3.55;;;20.80;99.90;;;;;;5049218;28;20510;-51
2022/09/16 01:50:51;;;;;;;18.98;3.28;;;20.80;99.90;;;;;;5049159;28;20399;-52
2022/09/16 01:54:11;;;;;;;13.30;3.75;;;20.80;99.90;;;;;;5052833;28;20044;-51
2022/09/16 01:57:45;;;;;;;12.95;3.13;;;20.80;99.90;;;;;;5052774;28;20040;-51
2022/09/16 02:00:52;;;;;;;12.80;3.50;;;20.70;99.90;;;;;;5052975;28;20520;-51
2022/09/16 02:04:00;;;;;;;19.42;3.75;;;20.70;99.90;;;;;;5052679;28;20048;-50
2022/09/16 02:07:09;;;;;;;12.43;3.17;;;20.70;99.90;;;;;;5053031;28;20117;-50
2022/09/16 02:10:34;;;;;;;13.35;3.40;;;20.70;99.90;;;;;;5052808;28;20076;-51
2022/09/16 02:13:43;;;;;;;8.77;3.67;;;20.70;99.90;;;;;;5052602;28;20562;-50
2022/09/16 02:16:55;;;;;;;14.45;3.60;;;20.60;99.90;;;;;;5052940;28;20044;-50
2022/09/16 02:20:06;;;;;;;16.37;3.27;;;20.60;99.90;;;;;;5052066;28;20040;-52
2022/09/16 02:23:24;;;;;;;17.00;3.25;;;20.50;99.90;;;;;;5052766;28;20051;-51
2022/09/16 02:30:01;;;;;;;13.02;3.00;;;20.40;99.90;;;;;;5052209;28;20043;-54
2022/09/16 02:33:08;;;;;;;16.50;3.72;;;20.40;99.90;;;;;;5052643;28;20048;-50
2022/09/16 02:36:16;;;;;;;17.02;3.45;;;20.40;99.90;;;;;;5052364;28;20036;-51
2022/09/16 02:39:28;;;;;;;13.38;3.20;;;20.40;99.90;;;;;;5052270;28;20044;-50
2022/09/16 02:42:33;;;;;;;13.45;3.17;;;20.40;99.90;;;;;;5052536;28;20412;-51
2022/09/16 02:46:03;;;;;;;17.35;4.05;;;20.40;99.90;;;;;;5052057;28;20071;-51
2022/09/16 02:49:26;;;;;;;14.20;3.60;;;20.40;99.90;;;;;;5052024;28;20048;-51
2022/09/16 02:52:32;;;;;;;13.00;4.65;;;20.40;99.90;;;;;;5051969;28;20431;-50
2022/09/16 02:55:55;;;;;;;17.58;3.92;;;20.30;99.90;;;;;;5051596;28;20040;-50
2022/09/16 02:59:01;;;;;;;15.20;3.63;;;20.30;99.90;;;;;;5051579;28;20044;-51
2022/09/16 03:02:43;;;;;;;14.60;3.78;;;20.30;99.90;;;;;;5051621;28;20048;-50
2022/09/16 03:06:13;;;;;;;17.10;3.80;;;20.10;99.90;;;;;;5051538;28;20044;-51
2022/09/16 03:09:17;;;;;;;13.45;4.22;;;20.00;99.90;;;;;;5051348;28;20044;-50
2022/09/16 03:13:01;;;;;;;14.73;4.00;;;20.00;99.90;;;;;;5051255;28;20052;-53
2022/09/16 03:16:51;;;;;;;20.63;4.35;;;19.90;99.90;;;;;;5051361;28;20040;-51
2022/09/16 03:20:20;;;;;;;8.75;3.30;;;19.90;99.90;;;;;;5051529;28;20052;-51
2022/09/16 03:23:43;;;;;;;16.25;3.63;;;19.80;99.90;;;;;;5051407;28;20407;-51
2022/09/16 03:27:22;;;;;;;16.27;5.93;;;19.70;99.90;;;;;;5051629;28;20048;-51
2022/09/16 03:30:45;;;;;;;13.20;3.33;;;19.60;99.90;;;;;;5051146;28;20043;-50
2022/09/16 03:37:55;;;;;;;12.82;3.17;;;19.70;99.90;;;;;;5051018;28;20797;-50
2022/09/16 03:44:39;;;;;;;9.60;3.17;;;19.30;99.90;;;;;;5050717;28;20048;-51
2022/09/16 03:47:44;;;;;;;14.85;3.78;;;19.30;99.90;;;;;;5050851;28;20033;-51
2022/09/16 03:51:25;;;;;;;16.83;4.55;;;19.30;99.90;;;;;;5051045;28;20060;-51
2022/09/16 03:54:30;;;;;;;14.80;4.18;;;19.20;99.90;;;;;;5050636;28;20048;-51
2022/09/16 03:57:34;;;;;;;25.17;4.43;;;19.20;99.90;;;;;;5050427;28;20507;-50
2022/09/16 04:00:57;;;;;;;19.05;4.90;;;19.20;99.90;;;;;;5049763;28;20044;-50
2022/09/16 04:04:01;;;;;;;13.38;4.78;;;18.90;99.90;;;;;;5049634;28;20059;-50
2022/09/16 04:07:05;;;;;;;15.68;4.30;;;18.90;99.90;;;;;;5051044;28;20059;-50
2022/09/16 04:10:11;;;;;;;14.40;4.60;;;19.00;99.90;;;;;;5050556;28;20051;-50
2022/09/16 04:13:15;;;;;;;11.85;4.30;;;19.00;99.90;;;;;;5050399;28;20040;-50
2022/09/16 04:16:20;;;;;;;19.23;4.88;;;18.90;99.90;;;;;;5050240;28;20514;-53
2022/09/16 04:19:43;;;;;;;18.58;5.68;;;18.90;99.90;;;;;;5050303;28;20044;-50
2022/09/16 04:23:05;;;;;;;17.33;4.50;;;18.90;99.90;;;;;;5050290;28;20044;-52
2022/09/16 04:29:51;;;;;;;18.95;5.13;;;18.90;99.90;;;;;;5049853;28;20060;-51
2022/09/16 04:33:14;;;;;;;17.17;4.85;;;18.90;99.90;;;;;;5049468;28;20060;-51
2022/09/16 04:36:19;;;;;;;14.18;4.35;;;18.70;99.90;;;;;;5050178;28;20044;-50
2022/09/16 04:39:24;;;;;;;13.23;4.38;;;18.60;99.90;;;;;;5049821;28;20610;-50
2022/09/16 04:42:28;;;;;;;15.60;4.90;;;18.50;99.90;;;;;;5049633;28;20040;-51
2022/09/16 04:45:32;;;;;;;13.20;4.43;;;18.50;99.90;;;;;;5049464;28;20052;-52
2022/09/16 04:48:36;;;;;;;22.90;6.13;;;18.50;99.90;;;;;;5049835;28;20068;-51
2022/09/16 04:51:59;;;;;;;22.58;5.30;;;18.30;99.90;;;;;;5049412;28;20048;-51
2022/09/16 04:58:28;;;;;;;13.45;5.00;;;18.30;99.90;;;;;;5031037;28;20037;-69
2022/09/16 05:04:58;;;;;;;21.88;7.05;;;18.30;99.90;;;;;;5029901;28;20100;-69
2022/09/16 05:08:02;;;;;;;16.67;5.35;;;18.30;99.90;;;;;;5030241;28;20500;-68
2022/09/16 05:11:26;;;;;;;20.20;5.97;;;18.30;99.90;;;;;;5030236;28;20044;-69
2022/09/16 05:14:48;;;;;;;14.45;5.03;;;18.30;99.90;;;;;;5029871;28;20044;-69
2022/09/16 05:21:18;;;;;;;20.38;5.40;;;18.40;99.90;;;;;;5040456;28;20036;-69
2022/09/16 05:28:22;;;;;;;13.60;4.00;;;18.50;99.90;;;;;;5034183;28;20507;-69
2022/09/16 05:31:29;;;;;;;18.27;5.97;;;18.50;99.90;;;;;;5033913;28;20043;-69
2022/09/16 05:34:52;;;;;;;13.27;4.68;;;18.20;99.90;;;;;;5033730;28;20515;-69
2022/09/16 05:37:56;;;;;;;19.85;4.88;;;18.10;99.90;;;;;;5033640;28;20056;-69
2022/09/16 05:41:38;;;;;;;16.90;6.07;;;18.00;99.90;;;;;;5033843;28;20041;-69
2022/09/16 05:44:42;;;;;;;22.13;6.72;;;18.10;99.90;;;;;;5033524;28;20049;-69
2022/09/16 05:47:49;;;;;;;13.02;5.55;;;18.10;99.90;;;;;;5033362;28;20045;-69
2022/09/16 05:51:13;;;;;;;17.50;5.68;;;18.20;99.90;;;;;;5033913;28;20044;-69
2022/09/16 05:54:18;;;;;;;15.43;6.03;;;18.30;99.90;;;;;;5032810;28;20052;-69
2022/09/16 05:57:22;;;;;;;16.63;4.85;;;18.50;99.90;;;;;;5033672;28;20052;-69
2022/09/16 06:00:26;;;;;;;14.68;3.38;;;20.50;99.90;;;;;;5034035;28;20040;-68
2022/09/16 06:03:31;;;;;;;14.35;3.10;;;22.90;99.90;;;;;;5032558;28;20107;-69
2022/09/16 06:06:55;;;;;;;12.25;3.63;;;24.90;99.90;;;;;;5032715;28;20053;-69
2022/09/16 06:13:41;;;;;;;12.82;4.25;;;28.60;99.90;;;;;;5030383;28;20052;-69
2022/09/16 06:16:45;;;;;;;12.13;2.90;;;29.20;99.90;;;;;;5031371;28;20412;-69
2022/09/16 06:19:49;;;;;;;22.05;4.68;;;28.10;99.90;;;;;;5032036;28;20400;-69
2022/09/16 06:22:53;;;;;;;12.30;3.38;;;26.80;99.90;;;;;;5017498;28;20036;-69
2022/09/16 06:26:03;;;;;;;11.52;3.42;;;27.40;99.90;;;;;;5032333;28;20041;-68
2022/09/16 06:29:08;;;;;;;11.65;3.60;;;28.80;99.90;;;;;;5030408;28;21135;-69
2022/09/16 06:32:32;;;;;;;13.55;3.65;;;29.20;99.90;;;;;;5026078;28;20044;-69
2022/09/16 06:35:36;;;;;;;15.93;3.50;;;30.20;99.90;;;;;;5030750;28;20408;-69
2022/09/16 06:38:40;;;;;;;13.07;3.30;;;31.50;99.90;;;;;;5031799;28;20048;-69
2022/09/16 06:41:45;;;;;;;12.93;3.75;;;29.90;99.90;;;;;;5032783;28;20064;-69
2022/09/16 06:44:48;;;;;;;15.30;4.20;;;30.20;99.90;;;;;;5031932;28;20072;-69
2022/09/16 06:47:52;;;;;;;8.63;3.88;;;30.30;99.90;;;;;;5032261;28;20048;-69
2022/09/16 06:51:01;;;;;;;15.25;5.18;;;31.40;99.90;;;;;;5032084;28;20037;-69
2022/09/16 06:54:07;;;;;;;16.58;5.10;;;30.10;99.90;;;;;;5031094;28;20052;-69
2022/09/16 06:57:12;;;;;;;13.82;4.50;;;30.20;99.90;;;;;;5031698;28;20064;-69
2022/09/16 07:00:15;;;;;;;15.32;4.80;;;31.20;99.90;;;;;;5032030;28;20036;-68
2022/09/16 07:03:19;;;;;;;13.65;4.78;;;32.60;99.90;;;;;;5031177;28;20384;-69
2022/09/16 07:10:07;;;;;;;10.45;5.03;;;32.70;99.90;;;;;;5027491;28;20056;-69
2022/09/16 07:13:49;;;;;;;14.85;5.05;;;33.90;99.20;;;;;;5026562;28;20044;-68
2022/09/16 07:16:52;;;;;;;11.65;4.70;;;34.40;98.90;;;;;;5028387;28;20033;-69
2022/09/16 07:20:16;;;;;;;15.45;4.10;;;35.50;97.50;;;;;;5031703;28;20049;-70
2022/09/16 07:23:20;;;;;;;8.75;2.72;;;35.90;96.40;;;;;;5026484;28;20045;-69
2022/09/16 07:26:29;;;;;;;9.35;2.60;;;36.30;95.20;;;;;;5024282;28;20041;-69
2022/09/16 07:29:34;;;;;;;13.73;4.97;;;36.60;93.90;;;;;;5025592;28;20045;-69
2022/09/16 07:32:38;;;;;;;7.97;2.47;;;35.40;95.90;;;;;;5026187;28;20331;-69
2022/09/16 07:35:42;;;;;;;10.52;2.70;;;36.50;93.60;;;;;;5021968;28;20040;-69
2022/09/16 07:38:47;;;;;;;9.23;2.85;;;36.00;93.60;;;;;;5032110;28;20376;-69
2022/09/16 07:41:51;;;;;;;12.50;4.45;;;35.60;93.30;;;;;;5029058;28;20041;-69
2022/09/16 07:48:17;;;;;;;5.88;2.10;;;35.40;93.00;;;;;;5028756;28;20040;-69
2022/09/16 07:54:48;;;;;;;3.75;1.60;;;37.90;90.90;;;;;;5026501;28;20484;-69
2022/09/16 07:57:52;;;;;;;5.43;1.70;;;38.20;87.80;;;;;;5028872;28;20045;-69
2022/09/16 08:00:57;;;;;;;9.38;2.50;;;38.60;87.40;;;;;;5029219;28;20048;-69
2022/09/16 08:04:20;;;;;;;7.28;1.77;;;38.50;87.70;;;;;;5023729;28;20050;-68
2022/09/16 08:07:25;;;;;;;7.30;1.70;;;39.60;86.20;;;;;;5022353;28;20057;-69
2022/09/16 08:10:29;;;;;;;9.65;3.17;;;37.40;85.10;;;;;;5023279;28;20041;-69
2022/09/16 08:13:52;;;;;;;6.25;1.95;;;35.90;90.40;;;;;;5029388;28;20504;-69
2022/09/16 08:17:15;;;;;;;4.97;1.67;;;36.40;88.40;;;;;;5031683;28;20046;-68
2022/09/16 08:20:38;;;;;;;7.75;2.70;;;36.50;87.80;;;;;;5031499;28;20037;-68
2022/09/16 08:23:43;;;;;;;6.53;2.33;;;37.40;85.50;;;;;;5027967;28;20053;-69
2022/09/16 08:27:06;;;;;;;7.30;2.45;;;37.80;85.70;;;;;;5026873;28;20831;-69
2022/09/16 08:33:53;;;;;;;7.43;1.70;;;37.10;85.60;;;;;;5029173;28;20034;-69
2022/09/16 08:41:21;;;;;;;6.85;1.80;;;38.60;84.70;;;;;;5023507;28;20034;-67
2022/09/16 08:44:52;;;;;;;5.63;1.77;;;39.50;82.40;;;;;;5027858;28;20499;-69
2022/09/16 08:48:13;;;;;;;6.45;1.70;;;39.90;80.60;;;;;;5027314;28;20403;-69
2022/09/16 08:55:05;;;;;;;8.40;2.20;;;41.50;78.60;;;;;;5025075;28;20475;-69
2022/09/16 08:58:16;;;;;;;6.80;1.67;;;39.30;76.90;;;;;;5027399;28;20033;-69
2022/09/16 09:01:29;;;;;;;9.15;1.80;;;37.50;81.10;;;;;;5027523;28;20052;-69
2022/09/16 09:04:33;;;;;;;8.95;2.20;;;38.30;81.80;;;;;;5011859;28;20053;-69
2022/09/16 09:07:50;;;;;;;6.72;1.85;;;37.50;82.00;;;;;;5028588;28;20040;-69
2022/09/16 09:11:04;;;;;;;8.23;2.15;;;36.90;82.60;;;;;;5030485;28;20361;-69
2022/09/16 09:14:37;;;;;;;7.90;2.30;;;34.70;85.20;;;;;;5027854;28;20057;-68
2022/09/16 09:18:13;;;;;;;7.43;2.20;;;35.10;85.80;;;;;;5029614;28;20060;-69
2022/09/16 09:21:43;;;;;;;10.23;2.47;;;32.30;90.50;;;;;;5028163;28;20382;-69
2022/09/16 09:24:57;;;;;;;7.97;2.10;;;31.90;90.30;;;;;;5018189;28;20550;-69
2022/09/16 09:28:46;;;;;;;12.80;2.40;;;30.00;91.40;;;;;;5026003;28;20515;-67
2022/09/16 09:32:18;;;;;;;8.90;1.80;;;29.00;93.30;;;;;;5026297;28;20052;-67
2022/09/16 09:35:57;;;;;;;15.55;2.75;;;29.50;93.10;;;;;;5024004;28;20396;-69
2022/09/16 09:39:10;;;;;;;6.63;2.05;;;30.30;93.40;;;;;;5026887;28;20048;-69
2022/09/16 09:46:05;;;;;;;10.60;2.10;;;32.20;92.40;;;;;;5024899;28;20065;-68
2022/09/16 09:49:27;;;;;;;10.10;2.63;;;32.30;91.90;;;;;;5028925;28;20064;-68
2022/09/16 09:52:38;;;;;;;6.03;1.85;;;31.40;92.40;;;;;;5021583;28;20664;-69
2022/09/16 09:56:15;;;;;;;9.45;2.08;;;32.40;92.40;;;;;;5025735;28;20053;-70
2022/09/16 09:59:35;;;;;;;8.52;2.05;;;34.40;90.60;;;;;;5026674;28;20045;-69
2022/09/16 10:02:41;;;;;;;12.63;2.05;;;33.40;90.80;;;;;;5027504;28;20672;-69
2022/09/16 10:05:47;;;;;;;11.88;2.83;;;32.40;91.50;;;;;;5021286;28;20045;-69
2022/09/16 10:08:56;;;;;;;8.40;1.85;;;31.90;92.30;;;;;;5025638;28;20052;-69
2022/09/16 10:12:56;;;;;;;14.13;3.03;;;31.20;91.80;;;;;;5028477;28;20034;-69
2022/09/16 10:16:09;;;;;;;;;;;31.00;92.50;;;;;;5033593;28;20130;-68
2022/09/16 10:19:50;;;;;;;10.55;2.20;;;30.40;93.50;;;;;;5013632;28;19928;-69
2022/09/16 10:23:00;;;;;;;;;;;30.30;94.30;;;;;;5019758;28;20044;-68
2022/09/16 10:26:25;;;;;;;8.95;1.85;;;32.90;92.60;;;;;;5032255;28;19916;-68
2022/09/16 10:29:29;;;;;;;8.93;1.95;;;33.30;90.30;;;;;;5032150;28;20513;-71
2022/09/16 10:39:53;;;;;;;7.07;1.58;;;30.00;91.40;;;;;;5028071;28;20049;-69
2022/09/16 10:43:02;;;;;;;10.38;1.73;;;32.60;90.10;;;;;;5030333;28;20032;-69
2022/09/16 10:46:28;;;;;;;5.32;1.63;;;33.50;89.30;;;;;;5029974;28;20049;-69
2022/09/16 10:50:04;;;;;;;8.15;1.92;;;34.70;86.50;;;;;;5028519;28;20045;-69
2022/09/16 10:53:35;;;;;;;7.43;1.10;;;35.00;85.40;;;;;;5031218;28;20049;-70
2022/09/16 10:56:58;;;;;;;8.07;1.83;;;33.10;86.50;;;;;;5025087;28;20500;-68
2022/09/16 11:00:23;;;;;;;3.03;0.90;;;36.30;82.40;;;;;;5020462;28;20046;-70
2022/09/16 11:03:49;;;;;;;8.55;1.38;;;37.80;79.30;;;;;;5025775;28;20085;-70
2022/09/16 11:07:27;;;;;;;3.58;1.10;;;39.50;80.20;;;;;;5019321;28;20041;-69
2022/09/16 11:11:10;;;;;;;1.83;0.70;;;38.50;75.80;;;;;;5030435;28;20135;-68
2022/09/16 11:14:37;;;;;;;2.53;1.05;;;39.10;74.90;;;;;;5031218;28;20041;-68
2022/09/16 11:17:57;;;;;;;7.75;1.30;;;35.20;78.60;;;;;;5026470;28;20029;-66
2022/09/16 11:21:30;;;;;;;7.63;1.00;;;32.00;82.70;;;;;;5012268;28;20041;-67
2022/09/16 11:24:59;;;;;;;5.60;1.00;;;31.80;83.70;;;;;;5039197;28;20053;-69
2022/09/16 11:28:24;;;;;;;7.35;1.42;;;31.00;84.20;;;;;;5031792;28;20044;-69
2022/09/16 11:31:37;;;;;;;4.57;1.00;;;33.10;84.90;;;;;;5029941;28;20048;-68
2022/09/16 11:34:47;;;;;;;5.93;1.15;;;35.30;80.60;;;;;;5026981;28;20045;-68
2022/09/16 11:38:21;;;;;;;5.00;1.20;;;32.90;80.80;;;;;;5030995;28;20040;-67
2022/09/16 11:41:39;;;;;;;3.38;1.02;;;30.30;85.40;;;;;;5031258;28;20045;-68
2022/09/16 11:45:02;;;;;;;6.00;1.55;;;31.40;85.50;;;;;;5031076;28;20037;-68
2022/09/16 11:48:44;;;;;;;3.05;0.93;;;34.80;80.40;;;;;;5029401;28;20042;-68
2022/09/16 11:51:55;;;;;;;2.92;0.98;;;37.50;75.90;;;;;;5026738;28;20396;-69
2022/09/16 11:55:20;;;;;;;3.00;1.05;;;39.10;74.80;;;;;;5025826;28;20042;-70
2022/09/16 11:58:54;;;;;;;3.67;0.90;;;37.20;75.70;;;;;;5030963;28;20048;-68
2022/09/16 12:02:30;;;;;;;5.13;1.25;;;36.60;74.20;;;;;;5030991;28;20048;-68
2022/09/16 12:05:52;;;;;;;5.22;1.20;;;34.60;76.90;;;;;;5024073;28;20060;-70
2022/09/16 12:09:36;;;;;;;7.33;1.40;;;33.90;77.90;;;;;;5023386;28;20637;-70
2022/09/16 12:13:06;;;;;;;3.10;0.82;;;34.80;78.40;;;;;;5023708;28;20050;-69
2022/09/16 12:16:45;;;;;;;3.00;1.20;;;38.20;74.50;;;;;;5028044;28;20404;-70
2022/09/16 12:20:05;;;;;;;5.40;0.80;;;36.70;74.50;;;;;;5022814;28;20034;-69
2022/09/16 12:23:33;;;;;;;2.50;1.23;;;38.30;74.10;;;;;;5026832;28;20045;-68
2022/09/16 12:26:47;;;;;;;4.13;1.38;;;38.50;72.90;;;;;;5021115;28;20045;-68
2022/09/16 12:30:18;;;;;;;3.38;1.23;;;36.40;74.60;;;;;;5025127;28;20045;-69
2022/09/16 12:33:31;;;;;;;5.03;1.77;;;36.20;74.70;;;;;;5025640;28;20048;-69
2022/09/16 12:40:23;;;;;;;3.20;1.80;;;36.80;76.20;;;;;;5028148;28;20054;-69
2022/09/16 12:44:39;;;;;;;4.40;2.25;;;38.10;74.80;;;;;;5029850;28;20499;-70
2022/09/16 12:48:01;;;;;;;5.82;2.17;;;40.00;72.30;;;;;;5027537;28;20396;-68
2022/09/16 12:51:27;;;;;;;4.72;2.38;;;38.40;72.50;;;;;;5024245;28;20523;-69
2022/09/16 12:55:12;;;;;;;4.55;2.47;;;36.10;75.70;;;;;;5027533;28;20052;-70
2022/09/16 12:58:20;;;;;;;7.30;2.88;;;35.80;75.50;;;;;;5037255;28;20550;-70
2022/09/16 13:01:43;;;;;;;8.88;2.80;;;35.90;76.80;;;;;;5021588;28;20049;-68
2022/09/16 13:04:55;;;;;;;7.45;2.75;;;36.50;76.10;;;;;;5023013;28;20056;-67
2022/09/16 13:08:27;;;;;;;11.32;3.38;;;36.00;74.80;;;;;;5025634;28;20052;-70
2022/09/16 13:18:44;;;;;;;4.53;2.45;;;35.40;73.80;;;;;;5022478;28;20048;-68
2022/09/16 13:21:53;;;;;;;8.90;3.42;;;35.80;73.60;;;;;;5027721;28;20032;-69
2022/09/16 13:25:20;;;;;;;4.35;2.40;;;35.60;74.10;;;;;;5025095;28;20064;-69
2022/09/16 13:28:37;;;;;;;5.80;2.80;;;33.60;74.90;;;;;;5025362;28;20040;-69
2022/09/16 13:32:00;;;;;;;8.57;2.80;;;31.40;79.20;;;;;;5022527;28;20052;-68
2022/09/16 13:35:17;;;;;;;5.43;2.75;;;33.80;77.30;;;;;;5025016;28;20048;-69
2022/09/16 13:38:24;;;;;;;5.43;3.33;;;33.80;75.80;;;;;;5024668;28;20384;-69
2022/09/16 13:45:38;;;;;;;6.45;3.40;;;33.30;78.90;;;;;;5025441;28;20048;-69
2022/09/16 13:49:15;;;;;;;5.35;3.47;;;34.50;76.70;;;;;;5029989;28;20503;-69
2022/09/16 13:52:20;;;;;;;6.22;3.00;;;36.00;75.40;;;;;;5029718;28;20117;-67
2022/09/16 13:55:46;;;;;;;5.80;2.72;;;34.10;76.30;;;;;;5022066;28;20048;-69
2022/09/16 14:03:05;;;;;;;6.50;3.30;;;33.10;77.20;;;;;;5027789;28;20044;-70
2022/09/16 14:06:29;;;;;;;10.82;2.95;;;31.90;78.30;;;;;;5032281;28;20219;-72
2022/09/16 14:10:50;;;;;;;7.93;3.17;;;32.60;79.30;;;;;;5013376;28;20044;-70
2022/09/16 14:14:09;;;;;;;6.30;2.60;;;32.60;78.90;;;;;;4954016;28;20158;-70
2022/09/16 14:17:34;;;;;;;6.05;3.15;;;32.80;78.80;;;;;;5032194;28;20032;-69
2022/09/16 14:21:05;;;;;;;5.07;2.90;;;31.90;80.80;;;;;;5032712;28;20388;-70
2022/09/16 14:24:17;;;;;;;10.57;2.90;;;31.70;81.90;;;;;;5029554;28;20048;-67
2022/09/16 14:27:35;;;;;;;8.07;2.97;;;31.90;81.60;;;;;;5029274;28;20507;-69
2022/09/16 14:30:45;;;;;;;11.00;3.22;;;31.80;82.00;;;;;;5024416;28;20070;-69
2022/09/16 14:34:21;;;;;;;6.03;2.83;;;31.60;81.60;;;;;;5028821;28;20052;-68
2022/09/16 14:37:28;;;;;;;10.48;3.08;;;31.40;82.60;;;;;;5032643;28;20045;-67
2022/09/16 14:40:32;;;;;;;11.82;3.17;;;30.80;83.80;;;;;;5029025;28;20036;-68
2022/09/16 14:43:37;;;;;;;8.60;3.03;;;30.50;83.60;;;;;;5032801;28;20048;-69
2022/09/16 14:47:13;;;;;;;5.72;2.60;;;29.40;84.10;;;;;;5024681;28;20677;-68
2022/09/16 14:50:31;;;;;;;12.23;2.85;;;29.90;85.90;;;;;;5031792;28;20389;-68
2022/09/16 14:53:55;;;;;;;9.77;2.90;;;30.50;84.50;;;;;;5025626;28;20048;-69
2022/09/16 14:57:00;;;;;;;6.95;2.60;;;30.50;84.80;;;;;;5031878;28;20041;-68
2022/09/16 15:00:36;;;;;;;8.15;2.50;;;30.30;83.20;;;;;;5031280;28;20041;-69
2022/09/16 15:04:03;;;;;;;5.57;2.63;;;29.50;83.80;;;;;;5029147;28;20044;-70
2022/09/16 15:07:34;;;;;;;11.45;2.90;;;28.20;86.40;;;;;;5031644;28;20048;-68
2022/09/16 15:10:39;;;;;;;12.77;2.95;;;27.90;87.90;;;;;;5013005;28;20049;-68
2022/09/16 15:17:27;;;;;;;7.50;3.08;;;27.20;90.20;;;;;;5030432;28;20044;-69
2022/09/16 15:20:36;;;;;;;7.20;2.45;;;27.50;91.10;;;;;;5029991;28;20043;-70
2022/09/16 15:24:05;;;;;;;10.77;2.78;;;27.90;91.30;;;;;;5029139;28;20048;-71
2022/09/16 15:27:09;;;;;;;12.93;2.88;;;28.40;91.00;;;;;;5032521;28;20048;-69
2022/09/16 15:37:30;;;;;;;10.07;3.10;;;28.40;91.50;;;;;;5023176;28;20032;-70
2022/09/16 15:40:35;;;;;;;;;;;28.70;91.50;;;;;;5031705;28;20047;-71
2022/09/16 15:47:05;;;;;;;9.82;3.20;;;28.90;91.30;;;;;;5028165;28;20048;-71
2022/09/16 15:50:30;;;;;;;13.05;3.03;;;28.90;91.40;;;;;;5030436;28;20050;-70
2022/09/16 15:53:42;;;;;;;6.85;2.65;;;28.30;91.70;;;;;;5029830;28;20036;-69
2022/09/16 15:57:10;;;;;;;12.57;2.90;;;27.70;91.40;;;;;;5026446;28;20045;-68
2022/09/16 16:00:15;;;;;;;9.05;2.65;;;27.00;92.70;;;;;;5029311;28;20381;-70
2022/09/16 16:03:38;;;;;;;10.35;2.83;;;27.10;91.80;;;;;;5029410;28;20052;-69
2022/09/16 16:07:09;;;;;;;10.00;2.58;;;27.30;92.70;;;;;;5024348;28;20044;-69
2022/09/16 16:11:24;;;;;;;11.02;3.20;;;27.40;92.70;;;;;;5026890;28;20049;-69
2022/09/16 16:14:33;;;;;;;8.52;3.30;;;27.00;93.30;;;;;;5031602;28;20052;-68
2022/09/16 16:17:38;;;;;;;8.75;2.97;;;27.00;93.20;;;;;;5031469;28;20053;-68
2022/09/16 16:20:44;;;;;;;11.00;3.22;;;26.90;93.10;;;;;;5030839;28;20048;-70
2022/09/16 16:24:06;;;;;;;16.02;3.35;;;27.00;93.10;;;;;;5030332;28;20064;-70
2022/09/16 16:27:29;;;;;;;11.50;3.50;;;27.00;93.00;;;;;;5031386;28;20044;-69
2022/09/16 16:34:37;;;;;;;13.82;3.90;;;26.40;93.30;;;;;;5030695;28;20052;-69
2022/09/16 16:41:03;;;;;;;17.10;3.95;;;26.20;93.30;;;;;;5031036;28;20496;-70
2022/09/16 16:44:07;;;;;;;9.82;3.33;;;25.90;93.30;;;;;;5030862;28;20060;-70
2022/09/16 16:47:12;;;;;;;11.52;3.22;;;25.80;93.50;;;;;;5030809;28;20511;-70
2022/09/16 16:50:16;;;;;;;10.52;3.10;;;25.60;93.30;;;;;;5030009;28;20191;-71
2022/09/16 16:53:20;;;;;;;16.30;3.90;;;25.50;93.70;;;;;;5030074;28;20065;-71
2022/09/16 16:56:24;;;;;;;9.65;3.63;;;25.50;93.90;;;;;;5030642;28;20527;-70
2022/09/16 17:02:51;;;;;;;10.85;3.30;;;25.30;94.20;;;;;;5030402;28;20048;-70
2022/09/16 17:05:56;;;;;;;11.85;3.63;;;25.20;94.30;;;;;;5030038;28;20053;-70
2022/09/16 17:09:00;;;;;;;12.77;3.65;;;25.10;94.30;;;;;;5030155;28;20400;-70
2022/09/16 17:12:05;;;;;;;10.68;3.70;;;24.80;94.40;;;;;;5029666;28;20451;-70
2022/09/16 17:15:09;;;;;;;11.48;4.15;;;24.60;94.90;;;;;;5028754;28;20060;-69
2022/09/16 17:18:13;;;;;;;16.73;4.22;;;24.50;95.10;;;;;;5029265;28;20412;-69
2022/09/16 17:21:23;;;;;;;11.45;3.70;;;24.30;95.20;;;;;;5030021;28;20044;-70
2022/09/16 17:24:27;;;;;;;10.77;3.70;;;24.20;95.50;;;;;;5029667;28;20395;-70
2022/09/16 17:27:31;;;;;;;13.23;4.60;;;23.90;95.20;;;;;;5030393;28;20507;-70
2022/09/16 17:30:35;;;;;;;14.52;4.18;;;23.70;95.20;;;;;;5030021;28;20056;-69
2022/09/16 17:37:03;;;;;;;12.70;4.60;;;23.60;95.90;;;;;;5030086;28;20056;-70
2022/09/16 17:40:07;;;;;;;11.30;4.05;;;23.40;96.20;;;;;;5029739;28;20048;-70
2022/09/16 17:43:11;;;;;;;10.32;3.55;;;23.30;96.10;;;;;;5029485;28;20400;-69
2022/09/16 17:46:18;;;;;;;12.27;3.75;;;23.20;95.90;;;;;;5029528;28;20052;-69
2022/09/16 17:49:23;;;;;;;16.77;3.83;;;23.10;96.30;;;;;;5029711;28;20048;-70
2022/09/16 17:52:47;;;;;;;20.13;3.65;;;22.90;96.50;;;;;;5029441;28;20540;-70
2022/09/16 17:55:51;;;;;;;12.57;3.85;;;22.80;97.00;;;;;;5028581;28;20040;-69
2022/09/16 17:58:55;;;;;;;9.73;3.45;;;22.80;97.20;;;;;;5029868;28;20064;-70
2022/09/16 18:02:21;;;;;;;7.57;3.70;;;22.70;97.50;;;;;;5029089;28;20388;-69
2022/09/16 18:08:49;;;;;;;17.27;3.60;;;22.60;98.60;;;;;;5029469;28;20047;-70
2022/09/16 18:11:53;;;;;;;8.32;3.42;;;22.50;99.20;;;;;;5029043;28;20056;-70
2022/09/16 18:14:57;;;;;;;11.13;4.38;;;22.50;99.70;;;;;;5028819;28;20049;-70
2022/09/16 18:18:21;;;;;;;15.90;3.60;;;22.30;99.90;;;;;;5029354;28;20531;-70
2022/09/16 18:21:27;;;;;;;17.17;4.10;;;22.30;99.90;;;;;;5029455;28;20045;-69
2022/09/16 18:24:49;;;;;;;8.65;3.72;;;22.20;99.90;;;;;;5029104;28;20060;-70
2022/09/16 18:27:55;;;;;;;16.02;4.18;;;22.20;99.90;;;;;;5029570;28;20048;-69
2022/09/16 18:31:00;;;;;;;15.90;3.90;;;22.20;99.90;;;;;;5029701;28;20052;-70
2022/09/16 18:34:04;;;;;;;17.67;4.88;;;22.10;99.90;;;;;;5029794;28;20503;-70
2022/09/16 18:37:08;;;;;;;16.00;5.13;;;22.10;99.90;;;;;;5032310;28;20048;-70
2022/09/16 18:40:13;;;;;;;19.42;6.32;;;22.10;99.90;;;;;;5033186;28;20048;-70
2022/09/16 18:46:39;;;;;;;17.05;5.13;;;22.00;99.90;;;;;;5033459;28;20044;-70
2022/09/16 18:49:43;;;;;;;21.10;5.10;;;21.90;99.90;;;;;;5033036;28;20048;-70
2022/09/16 18:52:49;;;;;;;19.00;4.75;;;21.80;99.90;;;;;;5032514;28;20511;-69
2022/09/16 18:56:15;;;;;;;18.02;4.72;;;21.80;99.90;;;;;;5031825;28;20049;-70
2022/09/16 18:59:39;;;;;;;15.48;4.72;;;21.80;99.90;;;;;;5032276;28;20060;-70
2022/09/16 19:03:01;;;;;;;15.57;5.07;;;21.80;99.90;;;;;;5032217;28;20388;-70
2022/09/16 19:06:05;;;;;;;27.98;5.15;;;21.70;99.90;;;;;;5032359;28;20535;-70